sensor_id;sensor_type;location;lat;lon;timestamp;temperature;humidity
78479;SHT31;67769;51.972;5.668;2023-03-30T00:02:21;15.6;60.2
78479;SHT31;67769;51.972;5.668;2023-03-30T00:04:51;15.6;60.1
78479;SHT31;67769;51.972;5.668;2023-03-30T00:07:21;15.6;59.9
78479;SHT31;67769;51.972;5.668;2023-03-30T00:09:53;15.6;60.0
78479;SHT31;67769;51.972;5.668;2023-03-30T00:12:23;15.6;59.9
78479;SHT31;67769;51.972;5.668;2023-03-30T00:14:54;15.6;59.8
78479;SHT31;67769;51.972;5.668;2023-03-30T00:17:24;15.6;59.8
78479;SHT31;67769;51.972;5.668;2023-03-30T00:19:53;15.6;59.9
78479;SHT31;67769;51.972;5.668;2023-03-30T00:22:24;15.6;59.9
78479;SHT31;67769;51.972;5.668;2023-03-30T00:24:53;15.6;59.4
78479;SHT31;67769;51.972;5.668;2023-03-30T00:27:23;15.6;58.8
78479;SHT31;67769;51.972;5.668;2023-03-30T00:29:53;15.7;58.8
78479;SHT31;67769;51.972;5.668;2023-03-30T00:32:23;15.7;58.8
78479;SHT31;67769;51.972;5.668;2023-03-30T00:34:52;15.7;58.6
78479;SHT31;67769;51.972;5.668;2023-03-30T00:37:22;15.7;58.4
78479;SHT31;67769;51.972;5.668;2023-03-30T00:39:52;15.7;58.6
78479;SHT31;67769;51.972;5.668;2023-03-30T00:42:23;15.7;58.6
78479;SHT31;67769;51.972;5.668;2023-03-30T00:45:06;15.8;58.4
78479;SHT31;67769;51.972;5.668;2023-03-30T00:47:39;15.8;58.1
78479;SHT31;67769;51.972;5.668;2023-03-30T00:50:10;15.8;57.8
78479;SHT31;67769;51.972;5.668;2023-03-30T00:52:45;15.8;57.7
78479;SHT31;67769;51.972;5.668;2023-03-30T00:55:14;15.8;58.1
78479;SHT31;67769;51.972;5.668;2023-03-30T00:57:47;15.9;57.6
78479;SHT31;67769;51.972;5.668;2023-03-30T01:00:19;15.9;57.8
78479;SHT31;67769;51.972;5.668;2023-03-30T01:02:55;15.9;57.6
78479;SHT31;67769;51.972;5.668;2023-03-30T01:05:27;15.9;57.4
78479;SHT31;67769;51.972;5.668;2023-03-30T01:07:58;16.0;57.4
78479;SHT31;67769;51.972;5.668;2023-03-30T01:10:28;16.0;57.2
78479;SHT31;67769;51.972;5.668;2023-03-30T01:12:57;16.0;57.1
78479;SHT31;67769;51.972;5.668;2023-03-30T01:15:32;16.0;57.3
78479;SHT31;67769;51.972;5.668;2023-03-30T01:18:32;16.0;57.2
78479;SHT31;67769;51.972;5.668;2023-03-30T01:21:32;16.0;57.0
78479;SHT31;67769;51.972;5.668;2023-03-30T01:24:52;16.0;57.1
78479;SHT31;67769;51.972;5.668;2023-03-30T01:28:07;16.0;56.9
78479;SHT31;67769;51.972;5.668;2023-03-30T01:35:06;16.1;57.2
78479;SHT31;67769;51.972;5.668;2023-03-30T01:37:58;16.1;57.2
78479;SHT31;67769;51.972;5.668;2023-03-30T01:40:38;16.1;57.1
78479;SHT31;67769;51.972;5.668;2023-03-30T01:43:17;16.1;57.1
78479;SHT31;67769;51.972;5.668;2023-03-30T01:45:52;16.1;57.1
78479;SHT31;67769;51.972;5.668;2023-03-30T01:48:26;16.1;57.2
78479;SHT31;67769;51.972;5.668;2023-03-30T01:51:05;16.1;56.7
78479;SHT31;67769;51.972;5.668;2023-03-30T01:53:43;16.1;56.5
78479;SHT31;67769;51.972;5.668;2023-03-30T01:56:19;16.1;56.5
78479;SHT31;67769;51.972;5.668;2023-03-30T01:58:55;16.1;56.2
78479;SHT31;67769;51.972;5.668;2023-03-30T02:01:29;16.1;56.0
78479;SHT31;67769;51.972;5.668;2023-03-30T02:04:03;16.2;56.1
78479;SHT31;67769;51.972;5.668;2023-03-30T02:06:38;16.2;55.8
78479;SHT31;67769;51.972;5.668;2023-03-30T02:09:15;16.3;55.6
78479;SHT31;67769;51.972;5.668;2023-03-30T02:11:49;16.4;55.1
78479;SHT31;67769;51.972;5.668;2023-03-30T02:14:26;16.4;55.0
78479;SHT31;67769;51.972;5.668;2023-03-30T02:17:02;16.4;54.9
78479;SHT31;67769;51.972;5.668;2023-03-30T02:19:34;16.4;54.7
78479;SHT31;67769;51.972;5.668;2023-03-30T02:22:04;16.4;54.9
78479;SHT31;67769;51.972;5.668;2023-03-30T02:24:35;16.4;54.6
78479;SHT31;67769;51.972;5.668;2023-03-30T02:27:05;16.4;54.5
78479;SHT31;67769;51.972;5.668;2023-03-30T02:29:38;16.4;54.6
78479;SHT31;67769;51.972;5.668;2023-03-30T02:32:17;16.4;54.7
78479;SHT31;67769;51.972;5.668;2023-03-30T02:39:20;16.3;55.0
78479;SHT31;67769;51.972;5.668;2023-03-30T02:42:23;16.3;55.1
78479;SHT31;67769;51.972;5.668;2023-03-30T02:45:08;16.2;55.5
78479;SHT31;67769;51.972;5.668;2023-03-30T02:47:53;16.2;55.3
78479;SHT31;67769;51.972;5.668;2023-03-30T02:50:36;16.2;55.7
78479;SHT31;67769;51.972;5.668;2023-03-30T02:53:18;16.1;55.8
78479;SHT31;67769;51.972;5.668;2023-03-30T02:55:59;16.1;56.1
78479;SHT31;67769;51.972;5.668;2023-03-30T02:58:38;16.2;56.5
78479;SHT31;67769;51.972;5.668;2023-03-30T03:01:15;16.3;56.5
78479;SHT31;67769;51.972;5.668;2023-03-30T03:03:48;16.3;56.1
78479;SHT31;67769;51.972;5.668;2023-03-30T03:06:22;16.4;56.1
78479;SHT31;67769;51.972;5.668;2023-03-30T03:08:54;16.4;56.3
78479;SHT31;67769;51.972;5.668;2023-03-30T03:11:25;16.4;56.3
78479;SHT31;67769;51.972;5.668;2023-03-30T03:13:55;16.5;56.5
78479;SHT31;67769;51.972;5.668;2023-03-30T03:16:26;16.5;56.5
78479;SHT31;67769;51.972;5.668;2023-03-30T03:18:56;16.6;56.7
78479;SHT31;67769;51.972;5.668;2023-03-30T03:21:27;16.7;56.3
78479;SHT31;67769;51.972;5.668;2023-03-30T03:23:57;16.8;56.2
78479;SHT31;67769;51.972;5.668;2023-03-30T03:26:26;16.8;56.5
78479;SHT31;67769;51.972;5.668;2023-03-30T03:28:56;16.8;56.7
78479;SHT31;67769;51.972;5.668;2023-03-30T03:31:25;16.8;57.2
78479;SHT31;67769;51.972;5.668;2023-03-30T03:33:57;16.7;57.5
78479;SHT31;67769;51.972;5.668;2023-03-30T03:36:27;16.7;57.7
78479;SHT31;67769;51.972;5.668;2023-03-30T03:38:57;16.7;58.0
78479;SHT31;67769;51.972;5.668;2023-03-30T03:41:27;16.6;58.1
78479;SHT31;67769;51.972;5.668;2023-03-30T03:43:56;16.6;58.2
78479;SHT31;67769;51.972;5.668;2023-03-30T03:46:26;16.6;58.3
78479;SHT31;67769;51.972;5.668;2023-03-30T03:48:55;16.5;58.5
78479;SHT31;67769;51.972;5.668;2023-03-30T03:51:25;16.5;58.7
78479;SHT31;67769;51.972;5.668;2023-03-30T03:53:55;16.5;59.0
78479;SHT31;67769;51.972;5.668;2023-03-30T03:56:25;16.5;59.1
78479;SHT31;67769;51.972;5.668;2023-03-30T03:58:55;16.5;58.9
78479;SHT31;67769;51.972;5.668;2023-03-30T04:01:24;16.4;59.1
78479;SHT31;67769;51.972;5.668;2023-03-30T04:03:56;16.4;59.2
78479;SHT31;67769;51.972;5.668;2023-03-30T04:06:26;16.4;59.2
78479;SHT31;67769;51.972;5.668;2023-03-30T04:08:56;16.4;59.2
78479;SHT31;67769;51.972;5.668;2023-03-30T04:11:27;16.4;59.4
78479;SHT31;67769;51.972;5.668;2023-03-30T04:13:57;16.4;59.3
78479;SHT31;67769;51.972;5.668;2023-03-30T04:16:26;16.4;59.5
78479;SHT31;67769;51.972;5.668;2023-03-30T04:18:56;16.4;59.5
78479;SHT31;67769;51.972;5.668;2023-03-30T04:21:28;16.4;59.7
78479;SHT31;67769;51.972;5.668;2023-03-30T04:24:00;16.4;59.8
78479;SHT31;67769;51.972;5.668;2023-03-30T04:26:30;16.4;59.9
78479;SHT31;67769;51.972;5.668;2023-03-30T04:28:59;16.4;59.9
78479;SHT31;67769;51.972;5.668;2023-03-30T04:31:31;16.4;60.0
78479;SHT31;67769;51.972;5.668;2023-03-30T04:34:02;16.4;60.3
78479;SHT31;67769;51.972;5.668;2023-03-30T04:36:32;16.4;60.3
78479;SHT31;67769;51.972;5.668;2023-03-30T04:39:02;16.4;60.4
78479;SHT31;67769;51.972;5.668;2023-03-30T04:41:35;16.4;60.5
78479;SHT31;67769;51.972;5.668;2023-03-30T04:44:11;16.4;60.5
78479;SHT31;67769;51.972;5.668;2023-03-30T04:46:41;16.4;60.5
78479;SHT31;67769;51.972;5.668;2023-03-30T04:49:11;16.4;60.6
78479;SHT31;67769;51.972;5.668;2023-03-30T04:51:40;16.4;60.9
78479;SHT31;67769;51.972;5.668;2023-03-30T04:54:10;16.4;61.0
78479;SHT31;67769;51.972;5.668;2023-03-30T04:56:40;16.4;62.2
78479;SHT31;67769;51.972;5.668;2023-03-30T04:59:09;16.4;62.6
78479;SHT31;67769;51.972;5.668;2023-03-30T05:01:39;16.4;62.7
78479;SHT31;67769;51.972;5.668;2023-03-30T05:04:08;16.4;62.7
78479;SHT31;67769;51.972;5.668;2023-03-30T05:06:38;16.3;62.7
78479;SHT31;67769;51.972;5.668;2023-03-30T05:09:08;16.3;63.3
78479;SHT31;67769;51.972;5.668;2023-03-30T05:11:38;16.3;63.3
78479;SHT31;67769;51.972;5.668;2023-03-30T05:14:08;16.2;63.7
78479;SHT31;67769;51.972;5.668;2023-03-30T05:16:37;16.2;64.2
78479;SHT31;67769;51.972;5.668;2023-03-30T05:19:07;16.1;64.6
78479;SHT31;67769;51.972;5.668;2023-03-30T05:21:37;16.1;64.8
78479;SHT31;67769;51.972;5.668;2023-03-30T05:24:07;16.0;65.2
78479;SHT31;67769;51.972;5.668;2023-03-30T05:26:37;16.0;65.5
78479;SHT31;67769;51.972;5.668;2023-03-30T05:29:08;15.9;65.8
78479;SHT31;67769;51.972;5.668;2023-03-30T05:31:38;15.9;65.8
78479;SHT31;67769;51.972;5.668;2023-03-30T05:34:09;15.9;65.8
78479;SHT31;67769;51.972;5.668;2023-03-30T05:36:38;15.8;66.0
78479;SHT31;67769;51.972;5.668;2023-03-30T05:39:08;15.8;66.1
78479;SHT31;67769;51.972;5.668;2023-03-30T05:41:38;15.7;66.2
78479;SHT31;67769;51.972;5.668;2023-03-30T05:44:08;15.7;66.2
78479;SHT31;67769;51.972;5.668;2023-03-30T05:46:38;15.7;66.2
78479;SHT31;67769;51.972;5.668;2023-03-30T05:49:08;15.6;66.5
78479;SHT31;67769;51.972;5.668;2023-03-30T05:51:39;15.6;66.4
78479;SHT31;67769;51.972;5.668;2023-03-30T05:54:11;15.6;66.7
78479;SHT31;67769;51.972;5.668;2023-03-30T05:56:41;15.6;66.7
78479;SHT31;67769;51.972;5.668;2023-03-30T05:59:11;15.6;66.7
78479;SHT31;67769;51.972;5.668;2023-03-30T06:01:41;15.6;66.8
78479;SHT31;67769;51.972;5.668;2023-03-30T06:04:13;15.6;66.9
78479;SHT31;67769;51.972;5.668;2023-03-30T06:06:43;15.6;67.0
78479;SHT31;67769;51.972;5.668;2023-03-30T06:09:15;15.6;67.0
78479;SHT31;67769;51.972;5.668;2023-03-30T06:11:45;15.6;67.0
78479;SHT31;67769;51.972;5.668;2023-03-30T06:14:14;15.6;67.0
78479;SHT31;67769;51.972;5.668;2023-03-30T06:16:44;15.6;67.2
78479;SHT31;67769;51.972;5.668;2023-03-30T06:19:14;15.6;67.2
78479;SHT31;67769;51.972;5.668;2023-03-30T06:21:44;15.6;66.9
78479;SHT31;67769;51.972;5.668;2023-03-30T06:24:14;15.6;66.9
78479;SHT31;67769;51.972;5.668;2023-03-30T06:26:45;15.8;66.2
78479;SHT31;67769;51.972;5.668;2023-03-30T06:29:15;15.8;65.5
78479;SHT31;67769;51.972;5.668;2023-03-30T06:31:45;15.8;65.0
78479;SHT31;67769;51.972;5.668;2023-03-30T06:34:14;15.9;65.1
78479;SHT31;67769;51.972;5.668;2023-03-30T06:36:44;15.9;65.0
78479;SHT31;67769;51.972;5.668;2023-03-30T06:39:14;15.9;65.0
78479;SHT31;67769;51.972;5.668;2023-03-30T06:41:44;15.9;65.0
78479;SHT31;67769;51.972;5.668;2023-03-30T06:44:13;15.9;65.1
78479;SHT31;67769;51.972;5.668;2023-03-30T06:46:43;15.8;65.4
78479;SHT31;67769;51.972;5.668;2023-03-30T06:49:15;15.8;65.5
78479;SHT31;67769;51.972;5.668;2023-03-30T06:51:45;15.8;65.2
78479;SHT31;67769;51.972;5.668;2023-03-30T06:54:15;15.8;64.6
78479;SHT31;67769;51.972;5.668;2023-03-30T06:56:47;15.8;64.1
78479;SHT31;67769;51.972;5.668;2023-03-30T06:59:17;15.8;63.6
78479;SHT31;67769;51.972;5.668;2023-03-30T07:01:47;15.8;63.4
78479;SHT31;67769;51.972;5.668;2023-03-30T07:04:17;15.8;63.2
78479;SHT31;67769;51.972;5.668;2023-03-30T07:06:46;15.8;63.2
78479;SHT31;67769;51.972;5.668;2023-03-30T07:09:16;15.8;63.1
78479;SHT31;67769;51.972;5.668;2023-03-30T07:11:45;15.8;63.0
78479;SHT31;67769;51.972;5.668;2023-03-30T07:14:15;15.8;64.0
78479;SHT31;67769;51.972;5.668;2023-03-30T07:16:45;15.9;63.9
78479;SHT31;67769;51.972;5.668;2023-03-30T07:19:15;16.1;64.0
78479;SHT31;67769;51.972;5.668;2023-03-30T07:21:45;16.4;62.6
78479;SHT31;67769;51.972;5.668;2023-03-30T07:24:15;16.6;61.6
78479;SHT31;67769;51.972;5.668;2023-03-30T07:26:45;16.7;61.3
78479;SHT31;67769;51.972;5.668;2023-03-30T07:29:14;16.8;60.7
78479;SHT31;67769;51.972;5.668;2023-03-30T07:31:44;16.9;60.4
78479;SHT31;67769;51.972;5.668;2023-03-30T07:34:15;17.0;59.6
78479;SHT31;67769;51.972;5.668;2023-03-30T07:36:44;17.0;59.7
78479;SHT31;67769;51.972;5.668;2023-03-30T07:39:15;17.0;59.2
78479;SHT31;67769;51.972;5.668;2023-03-30T07:41:45;17.0;58.1
78479;SHT31;67769;51.972;5.668;2023-03-30T07:44:16;17.0;58.1
78479;SHT31;67769;51.972;5.668;2023-03-30T07:46:46;17.0;57.8
78479;SHT31;67769;51.972;5.668;2023-03-30T07:49:16;17.0;58.0
78479;SHT31;67769;51.972;5.668;2023-03-30T07:51:45;17.0;57.9
78479;SHT31;67769;51.972;5.668;2023-03-30T07:54:17;16.9;57.5
78479;SHT31;67769;51.972;5.668;2023-03-30T07:56:47;16.9;57.8
78479;SHT31;67769;51.972;5.668;2023-03-30T07:59:19;16.9;57.4
78479;SHT31;67769;51.972;5.668;2023-03-30T08:01:50;16.8;57.6
78479;SHT31;67769;51.972;5.668;2023-03-30T08:04:21;16.8;58.0
78479;SHT31;67769;51.972;5.668;2023-03-30T08:06:54;16.8;57.3
78479;SHT31;67769;51.972;5.668;2023-03-30T08:09:24;16.7;57.7
78479;SHT31;67769;51.972;5.668;2023-03-30T08:11:54;16.7;57.5
78479;SHT31;67769;51.972;5.668;2023-03-30T08:14:23;16.7;57.9
78479;SHT31;67769;51.972;5.668;2023-03-30T08:16:54;16.7;57.9
78479;SHT31;67769;51.972;5.668;2023-03-30T08:19:26;16.7;58.5
78479;SHT31;67769;51.972;5.668;2023-03-30T08:21:56;16.7;58.1
78479;SHT31;67769;51.972;5.668;2023-03-30T08:24:28;16.7;58.6
78479;SHT31;67769;51.972;5.668;2023-03-30T08:26:57;16.7;58.6
78479;SHT31;67769;51.972;5.668;2023-03-30T08:29:28;16.8;58.4
78479;SHT31;67769;51.972;5.668;2023-03-30T08:31:59;16.9;57.8
78479;SHT31;67769;51.972;5.668;2023-03-30T08:34:30;16.9;57.0
78479;SHT31;67769;51.972;5.668;2023-03-30T08:37:00;17.0;57.5
78479;SHT31;67769;51.972;5.668;2023-03-30T08:39:32;17.0;57.0
78479;SHT31;67769;51.972;5.668;2023-03-30T08:42:19;17.0;57.2
78479;SHT31;67769;51.972;5.668;2023-03-30T08:44:54;17.0;57.0
78479;SHT31;67769;51.972;5.668;2023-03-30T08:47:32;17.1;56.4
78479;SHT31;67769;51.972;5.668;2023-03-30T08:50:06;17.1;56.2
78479;SHT31;67769;51.972;5.668;2023-03-30T08:52:37;17.1;56.4
78479;SHT31;67769;51.972;5.668;2023-03-30T08:55:18;17.1;56.3
78479;SHT31;67769;51.972;5.668;2023-03-30T08:57:59;17.1;56.0
78479;SHT31;67769;51.972;5.668;2023-03-30T09:00:35;17.1;55.7
78479;SHT31;67769;51.972;5.668;2023-03-30T09:03:16;17.0;56.3
78479;SHT31;67769;51.972;5.668;2023-03-30T09:05:57;17.0;56.4
78479;SHT31;67769;51.972;5.668;2023-03-30T09:08:30;17.0;56.7
78479;SHT31;67769;51.972;5.668;2023-03-30T09:11:04;17.0;56.9
78479;SHT31;67769;51.972;5.668;2023-03-30T09:13:37;17.0;58.5
78479;SHT31;67769;51.972;5.668;2023-03-30T09:16:15;17.0;58.7
78479;SHT31;67769;51.972;5.668;2023-03-30T09:18:52;17.0;59.1
78479;SHT31;67769;51.972;5.668;2023-03-30T09:21:27;17.0;60.5
78479;SHT31;67769;51.972;5.668;2023-03-30T09:24:05;17.0;60.0
78479;SHT31;67769;51.972;5.668;2023-03-30T09:26:48;17.1;60.5
78479;SHT31;67769;51.972;5.668;2023-03-30T09:29:23;17.2;59.7
78479;SHT31;67769;51.972;5.668;2023-03-30T09:32:03;17.4;59.5
78479;SHT31;67769;51.972;5.668;2023-03-30T09:34:46;17.6;59.5
78479;SHT31;67769;51.972;5.668;2023-03-30T09:37:21;17.9;57.0
78479;SHT31;67769;51.972;5.668;2023-03-30T09:39:51;18.1;56.4
78479;SHT31;67769;51.972;5.668;2023-03-30T09:42:31;18.3;55.1
78479;SHT31;67769;51.972;5.668;2023-03-30T09:45:09;18.4;54.3
78479;SHT31;67769;51.972;5.668;2023-03-30T09:47:41;18.5;53.3
78479;SHT31;67769;51.972;5.668;2023-03-30T09:50:16;18.6;51.9
78479;SHT31;67769;51.972;5.668;2023-03-30T09:52:58;18.7;52.0
78479;SHT31;67769;51.972;5.668;2023-03-30T09:55:30;18.7;52.7
78479;SHT31;67769;51.972;5.668;2023-03-30T09:58:15;18.8;52.3
78479;SHT31;67769;51.972;5.668;2023-03-30T10:01:02;18.9;52.3
78479;SHT31;67769;51.972;5.668;2023-03-30T10:03:34;19.0;52.0
78479;SHT31;67769;51.972;5.668;2023-03-30T10:06:07;19.1;50.8
78479;SHT31;67769;51.972;5.668;2023-03-30T10:08:43;19.2;49.8
78479;SHT31;67769;51.972;5.668;2023-03-30T10:11:27;19.3;49.9
78479;SHT31;67769;51.972;5.668;2023-03-30T10:13:56;19.3;48.4
78479;SHT31;67769;51.972;5.668;2023-03-30T10:16:29;19.4;48.7
78479;SHT31;67769;51.972;5.668;2023-03-30T10:19:02;19.4;48.0
78479;SHT31;67769;51.972;5.668;2023-03-30T10:21:36;19.3;47.7
78479;SHT31;67769;51.972;5.668;2023-03-30T10:24:22;19.3;48.0
78479;SHT31;67769;51.972;5.668;2023-03-30T10:26:55;19.2;47.8
78479;SHT31;67769;51.972;5.668;2023-03-30T10:29:28;19.1;48.0
78479;SHT31;67769;51.972;5.668;2023-03-30T10:32:01;19.0;48.0
78479;SHT31;67769;51.972;5.668;2023-03-30T10:34:38;18.9;48.6
78479;SHT31;67769;51.972;5.668;2023-03-30T10:37:13;18.9;49.3
78479;SHT31;67769;51.972;5.668;2023-03-30T10:39:47;18.9;50.0
78479;SHT31;67769;51.972;5.668;2023-03-30T10:42:25;18.9;50.4
78479;SHT31;67769;51.972;5.668;2023-03-30T10:45:00;19.0;50.2
78479;SHT31;67769;51.972;5.668;2023-03-30T10:47:51;19.2;49.5
78479;SHT31;67769;51.972;5.668;2023-03-30T10:50:32;19.2;49.3
78479;SHT31;67769;51.972;5.668;2023-03-30T10:53:18;19.2;49.2
78479;SHT31;67769;51.972;5.668;2023-03-30T10:56:02;19.3;48.4
78479;SHT31;67769;51.972;5.668;2023-03-30T10:58:55;19.3;48.4
78479;SHT31;67769;51.972;5.668;2023-03-30T11:01:38;19.4;48.3
78479;SHT31;67769;51.972;5.668;2023-03-30T11:04:20;19.5;48.0
78479;SHT31;67769;51.972;5.668;2023-03-30T11:06:55;19.5;47.4
78479;SHT31;67769;51.972;5.668;2023-03-30T11:09:31;19.4;47.0
78479;SHT31;67769;51.972;5.668;2023-03-30T11:12:06;19.4;47.5
78479;SHT31;67769;51.972;5.668;2023-03-30T11:14:48;19.3;47.7
78479;SHT31;67769;51.972;5.668;2023-03-30T11:17:22;19.2;49.1
78479;SHT31;67769;51.972;5.668;2023-03-30T11:19:55;19.2;49.0
78479;SHT31;67769;51.972;5.668;2023-03-30T11:22:35;19.2;47.3
78479;SHT31;67769;51.972;5.668;2023-03-30T11:25:19;19.2;47.1
78479;SHT31;67769;51.972;5.668;2023-03-30T11:27:54;19.2;46.8
78479;SHT31;67769;51.972;5.668;2023-03-30T11:30:29;19.1;46.8
78479;SHT31;67769;51.972;5.668;2023-03-30T11:33:10;19.1;47.5
78479;SHT31;67769;51.972;5.668;2023-03-30T11:35:45;19.0;47.7
78479;SHT31;67769;51.972;5.668;2023-03-30T11:38:19;19.0;47.3
78479;SHT31;67769;51.972;5.668;2023-03-30T11:40:53;18.9;47.9
78479;SHT31;67769;51.972;5.668;2023-03-30T11:43:27;18.9;48.0
78479;SHT31;67769;51.972;5.668;2023-03-30T11:46:04;18.8;48.4
78479;SHT31;67769;51.972;5.668;2023-03-30T11:48:58;18.8;49.2
78479;SHT31;67769;51.972;5.668;2023-03-30T11:51:48;18.7;48.5
78479;SHT31;67769;51.972;5.668;2023-03-30T11:54:36;18.7;48.0
78479;SHT31;67769;51.972;5.668;2023-03-30T11:57:18;18.7;48.2
78479;SHT31;67769;51.972;5.668;2023-03-30T12:00:01;18.7;48.5
78479;SHT31;67769;51.972;5.668;2023-03-30T12:02:45;18.8;48.2
78479;SHT31;67769;51.972;5.668;2023-03-30T12:05:26;18.8;48.7
78479;SHT31;67769;51.972;5.668;2023-03-30T12:08:05;18.8;48.8
78479;SHT31;67769;51.972;5.668;2023-03-30T12:10:40;18.8;48.6
78479;SHT31;67769;51.972;5.668;2023-03-30T12:13:13;18.9;48.5
78479;SHT31;67769;51.972;5.668;2023-03-30T12:15:51;18.9;48.5
78479;SHT31;67769;51.972;5.668;2023-03-30T12:18:35;18.9;48.1
78479;SHT31;67769;51.972;5.668;2023-03-30T12:21:24;18.9;47.2
78479;SHT31;67769;51.972;5.668;2023-03-30T12:24:07;18.9;47.9
78479;SHT31;67769;51.972;5.668;2023-03-30T12:26:39;18.9;48.0
78479;SHT31;67769;51.972;5.668;2023-03-30T12:29:12;18.9;48.1
78479;SHT31;67769;51.972;5.668;2023-03-30T12:32:07;18.9;47.9
78479;SHT31;67769;51.972;5.668;2023-03-30T12:34:41;18.9;47.7
78479;SHT31;67769;51.972;5.668;2023-03-30T12:37:15;18.9;48.1
78479;SHT31;67769;51.972;5.668;2023-03-30T12:39:52;18.9;49.2
78479;SHT31;67769;51.972;5.668;2023-03-30T12:42:25;18.9;49.3
78479;SHT31;67769;51.972;5.668;2023-03-30T12:45:24;19.0;48.2
78479;SHT31;67769;51.972;5.668;2023-03-30T12:48:19;19.0;48.6
78479;SHT31;67769;51.972;5.668;2023-03-30T12:51:01;19.1;49.3
78479;SHT31;67769;51.972;5.668;2023-03-30T12:53:55;19.1;48.5
78479;SHT31;67769;51.972;5.668;2023-03-30T12:56:39;19.1;49.1
78479;SHT31;67769;51.972;5.668;2023-03-30T12:59:55;19.2;48.8
78479;SHT31;67769;51.972;5.668;2023-03-30T13:03:06;19.2;47.8
78479;SHT31;67769;51.972;5.668;2023-03-30T13:05:43;19.2;47.1
78479;SHT31;67769;51.972;5.668;2023-03-30T13:08:20;19.2;47.4
78479;SHT31;67769;51.972;5.668;2023-03-30T13:11:07;19.1;47.7
78479;SHT31;67769;51.972;5.668;2023-03-30T13:13:48;19.1;47.8
78479;SHT31;67769;51.972;5.668;2023-03-30T13:16:48;19.1;47.9
78479;SHT31;67769;51.972;5.668;2023-03-30T13:19:25;19.1;48.1
78479;SHT31;67769;51.972;5.668;2023-03-30T13:22:02;19.0;47.5
78479;SHT31;67769;51.972;5.668;2023-03-30T13:24:43;19.0;47.7
78479;SHT31;67769;51.972;5.668;2023-03-30T13:27:26;19.0;48.8
78479;SHT31;67769;51.972;5.668;2023-03-30T13:29:59;18.9;48.5
78479;SHT31;67769;51.972;5.668;2023-03-30T13:33:07;18.9;48.7
78479;SHT31;67769;51.972;5.668;2023-03-30T13:35:53;18.8;48.7
78479;SHT31;67769;51.972;5.668;2023-03-30T13:38:35;18.8;49.3
78479;SHT31;67769;51.972;5.668;2023-03-30T13:41:20;18.8;49.5
78479;SHT31;67769;51.972;5.668;2023-03-30T13:44:08;18.8;49.7
78479;SHT31;67769;51.972;5.668;2023-03-30T13:46:46;18.8;50.4
78479;SHT31;67769;51.972;5.668;2023-03-30T13:49:33;18.8;50.6
78479;SHT31;67769;51.972;5.668;2023-03-30T13:52:11;18.8;49.9
78479;SHT31;67769;51.972;5.668;2023-03-30T13:54:42;18.8;50.2
78479;SHT31;67769;51.972;5.668;2023-03-30T13:57:17;18.8;50.2
78479;SHT31;67769;51.972;5.668;2023-03-30T13:59:52;18.8;50.3
78479;SHT31;67769;51.972;5.668;2023-03-30T14:02:30;18.9;50.1
78479;SHT31;67769;51.972;5.668;2023-03-30T14:05:12;18.9;48.7
78479;SHT31;67769;51.972;5.668;2023-03-30T14:07:42;19.0;48.3
78479;SHT31;67769;51.972;5.668;2023-03-30T14:10:18;19.0;47.6
78479;SHT31;67769;51.972;5.668;2023-03-30T14:12:51;19.1;47.2
78479;SHT31;67769;51.972;5.668;2023-03-30T14:15:25;19.1;47.2
78479;SHT31;67769;51.972;5.668;2023-03-30T14:17:58;19.2;47.1
78479;SHT31;67769;51.972;5.668;2023-03-30T14:20:42;19.2;47.4
78479;SHT31;67769;51.972;5.668;2023-03-30T14:23:18;19.3;46.8
78479;SHT31;67769;51.972;5.668;2023-03-30T14:25:52;19.4;46.2
78479;SHT31;67769;51.972;5.668;2023-03-30T14:28:25;19.4;46.3
78479;SHT31;67769;51.972;5.668;2023-03-30T14:30:57;19.4;46.8
78479;SHT31;67769;51.972;5.668;2023-03-30T14:33:30;19.4;46.6
78479;SHT31;67769;51.972;5.668;2023-03-30T14:36:01;19.4;47.0
78479;SHT31;67769;51.972;5.668;2023-03-30T14:38:32;19.4;46.6
78479;SHT31;67769;51.972;5.668;2023-03-30T14:41:07;19.4;46.7
78479;SHT31;67769;51.972;5.668;2023-03-30T14:43:39;19.3;46.8
78479;SHT31;67769;51.972;5.668;2023-03-30T14:46:11;19.3;46.7
78479;SHT31;67769;51.972;5.668;2023-03-30T14:48:43;19.2;47.0
78479;SHT31;67769;51.972;5.668;2023-03-30T14:51:24;19.2;47.3
78479;SHT31;67769;51.972;5.668;2023-03-30T14:53:54;19.1;47.0
78479;SHT31;67769;51.972;5.668;2023-03-30T14:56:26;19.1;47.4
78479;SHT31;67769;51.972;5.668;2023-03-30T14:58:57;19.1;47.3
78479;SHT31;67769;51.972;5.668;2023-03-30T15:01:29;19.0;47.4
78479;SHT31;67769;51.972;5.668;2023-03-30T15:04:05;19.0;47.6
78479;SHT31;67769;51.972;5.668;2023-03-30T15:06:36;19.0;48.5
78479;SHT31;67769;51.972;5.668;2023-03-30T15:09:13;19.0;48.4
78479;SHT31;67769;51.972;5.668;2023-03-30T15:11:48;19.1;47.9
78479;SHT31;67769;51.972;5.668;2023-03-30T15:14:20;19.2;48.1
78479;SHT31;67769;51.972;5.668;2023-03-30T15:16:54;19.3;47.5
78479;SHT31;67769;51.972;5.668;2023-03-30T15:19:29;19.3;47.6
78479;SHT31;67769;51.972;5.668;2023-03-30T15:22:03;19.3;47.2
78479;SHT31;67769;51.972;5.668;2023-03-30T15:24:35;19.3;46.3
78479;SHT31;67769;51.972;5.668;2023-03-30T15:27:08;19.3;46.1
78479;SHT31;67769;51.972;5.668;2023-03-30T15:29:40;19.3;45.9
78479;SHT31;67769;51.972;5.668;2023-03-30T15:32:15;19.3;46.2
78479;SHT31;67769;51.972;5.668;2023-03-30T15:35:03;19.3;46.1
78479;SHT31;67769;51.972;5.668;2023-03-30T15:37:35;19.3;46.2
78479;SHT31;67769;51.972;5.668;2023-03-30T15:40:26;19.2;46.7
78479;SHT31;67769;51.972;5.668;2023-03-30T15:43:13;19.2;46.6
78479;SHT31;67769;51.972;5.668;2023-03-30T15:45:46;19.2;47.3
78479;SHT31;67769;51.972;5.668;2023-03-30T15:48:19;19.1;47.5
78479;SHT31;67769;51.972;5.668;2023-03-30T15:50:54;19.1;47.1
78479;SHT31;67769;51.972;5.668;2023-03-30T15:53:32;19.1;46.0
78479;SHT31;67769;51.972;5.668;2023-03-30T15:56:03;19.1;45.3
78479;SHT31;67769;51.972;5.668;2023-03-30T15:58:35;19.1;45.7
78479;SHT31;67769;51.972;5.668;2023-03-30T16:01:08;19.1;45.7
78479;SHT31;67769;51.972;5.668;2023-03-30T16:03:41;19.0;46.1
78479;SHT31;67769;51.972;5.668;2023-03-30T16:06:20;19.0;46.0
78479;SHT31;67769;51.972;5.668;2023-03-30T16:08:50;19.0;46.0
78479;SHT31;67769;51.972;5.668;2023-03-30T16:11:20;19.0;46.1
78479;SHT31;67769;51.972;5.668;2023-03-30T16:13:51;19.0;45.8
78479;SHT31;67769;51.972;5.668;2023-03-30T16:16:22;18.9;46.0
78479;SHT31;67769;51.972;5.668;2023-03-30T16:18:52;18.9;45.9
78479;SHT31;67769;51.972;5.668;2023-03-30T16:21:21;18.9;46.2
78479;SHT31;67769;51.972;5.668;2023-03-30T16:23:52;18.9;46.5
78479;SHT31;67769;51.972;5.668;2023-03-30T16:26:22;18.9;46.3
78479;SHT31;67769;51.972;5.668;2023-03-30T16:28:54;18.8;46.5
78479;SHT31;67769;51.972;5.668;2023-03-30T16:31:24;18.8;46.3
78479;SHT31;67769;51.972;5.668;2023-03-30T16:33:56;18.8;46.9
78479;SHT31;67769;51.972;5.668;2023-03-30T16:36:25;18.8;46.7
78479;SHT31;67769;51.972;5.668;2023-03-30T16:38:56;18.7;46.5
78479;SHT31;67769;51.972;5.668;2023-03-30T16:41:26;18.7;47.2
78479;SHT31;67769;51.972;5.668;2023-03-30T16:43:55;18.7;46.9
78479;SHT31;67769;51.972;5.668;2023-03-30T16:46:25;18.7;46.8
78479;SHT31;67769;51.972;5.668;2023-03-30T16:48:54;18.7;47.0
78479;SHT31;67769;51.972;5.668;2023-03-30T16:51:24;18.6;47.5
78479;SHT31;67769;51.972;5.668;2023-03-30T16:53:54;18.6;47.6
78479;SHT31;67769;51.972;5.668;2023-03-30T16:56:23;18.5;47.2
78479;SHT31;67769;51.972;5.668;2023-03-30T16:58:55;18.5;47.5
78479;SHT31;67769;51.972;5.668;2023-03-30T17:01:27;18.5;47.7